Time;durP1;ratioP1;P1;durP2;ratioP2;P2;SDS_P1;SDS_P2;PMS_P1;PMS_P2;Temp;Humidity;BMP_temperature;BMP_pressure;BME280_temperature;BME280_humidity;BME280_pressure;Samples;Min_cycle;Max_cycle;Signal;HPM_P1;HPM_P2
2024/01/25 00:00:20;;;;;;;7.07;6.97;;;8.80;99.90;;;;;;5037147;28;20540;-71
2024/01/25 00:02:48;;;;;;;6.57;6.47;;;8.80;99.90;;;;;;5038102;28;20464;-71
2024/01/25 00:05:15;;;;;;;6.70;6.60;;;8.80;99.90;;;;;;5037537;28;20474;-69
2024/01/25 00:07:50;;;;;;;6.20;6.10;;;8.80;99.90;;;;;;5044833;28;20481;-71
2024/01/25 00:10:18;;;;;;;6.40;6.30;;;8.80;99.90;;;;;;5031879;28;20878;-70
2024/01/25 00:12:45;;;;;;;6.20;6.10;;;8.80;99.90;;;;;;5043390;28;20465;-70
2024/01/25 00:15:13;;;;;;;6.10;6.00;;;8.80;99.90;;;;;;5044763;28;20464;-69
2024/01/25 00:17:40;;;;;;;6.07;5.97;;;8.70;99.90;;;;;;5036965;28;20461;-70
2024/01/25 00:20:10;;;;;;;5.60;5.50;;;8.70;99.90;;;;;;5037035;28;21115;-70
2024/01/25 00:22:37;;;;;;;5.90;5.80;;;8.70;99.90;;;;;;5043239;28;20484;-69
2024/01/25 00:25:07;;;;;;;5.53;5.43;;;8.70;99.90;;;;;;5040001;28;20468;-69
2024/01/25 00:27:34;;;;;;;5.53;5.43;;;8.70;99.90;;;;;;5037754;28;20461;-69
2024/01/25 00:30:01;;;;;;;5.60;5.50;;;8.60;99.90;;;;;;5041380;28;20962;-70
2024/01/25 00:32:28;;;;;;;5.70;5.60;;;8.60;99.90;;;;;;5037079;28;20465;-70
2024/01/25 00:34:55;;;;;;;4.77;4.77;;;8.60;99.90;;;;;;5038900;28;20565;-70
2024/01/25 00:37:23;;;;;;;5.47;5.37;;;8.50;99.90;;;;;;5044314;28;20970;-71
2024/01/25 00:39:50;;;;;;;5.07;5.07;;;8.50;99.90;;;;;;5040917;28;20500;-70
2024/01/25 00:42:22;;;;;;;4.63;4.63;;;8.40;99.90;;;;;;5029878;28;20518;-72
2024/01/25 00:44:50;;;;;;;4.90;4.90;;;8.30;99.90;;;;;;5038374;28;20457;-71
2024/01/25 00:49:59;;;;;;;4.53;4.53;;;8.20;99.90;;;;;;5037509;28;20452;-71
2024/01/25 00:52:26;;;;;;;5.00;5.00;;;8.20;99.90;;;;;;5039607;28;20487;-71
2024/01/25 00:54:54;;;;;;;4.20;4.20;;;8.20;99.90;;;;;;5041474;28;20464;-71
2024/01/25 00:57:22;;;;;;;4.27;4.27;;;8.20;99.90;;;;;;5043023;28;20809;-72
2024/01/25 00:59:50;;;;;;;4.10;4.10;;;8.10;99.90;;;;;;5040600;28;20495;-69
2024/01/25 01:02:22;;;;;;;4.17;4.17;;;8.10;99.90;;;;;;5036015;28;20465;-69
2024/01/25 01:04:49;;;;;;;4.00;4.00;;;8.10;99.90;;;;;;5038637;28;21325;-70
2024/01/25 01:07:32;;;;;;;3.90;3.90;;;8.00;99.90;;;;;;5039591;28;20543;-70
2024/01/25 01:12:42;;;;;;;3.90;3.90;;;8.00;99.90;;;;;;5040256;28;20452;-72
2024/01/25 01:15:09;;;;;;;3.83;3.83;;;8.00;99.90;;;;;;5037497;28;20461;-71
2024/01/25 01:17:36;;;;;;;3.67;3.67;;;7.90;99.90;;;;;;5030024;28;20449;-71
2024/01/25 01:20:04;;;;;;;3.87;3.87;;;7.90;99.90;;;;;;5041785;28;20488;-72
2024/01/25 01:22:31;;;;;;;3.80;3.80;;;7.90;99.90;;;;;;5040500;28;20461;-72
2024/01/25 01:25:00;;;;;;;3.80;3.80;;;7.80;99.90;;;;;;5037585;28;20457;-72
2024/01/25 01:27:27;;;;;;;3.47;3.47;;;7.80;99.90;;;;;;5041978;28;20475;-70
2024/01/25 01:29:55;;;;;;;3.50;3.50;;;7.70;99.90;;;;;;5043738;28;20461;-71
2024/01/25 01:32:22;;;;;;;3.30;3.30;;;7.60;99.90;;;;;;5047658;28;20606;-72
2024/01/25 01:34:48;;;;;;;3.40;3.40;;;7.60;99.90;;;;;;5042914;28;20604;-71
2024/01/25 01:37:15;;;;;;;3.80;3.80;;;7.50;99.90;;;;;;5040711;28;20461;-70
2024/01/25 01:39:43;;;;;;;3.53;3.53;;;7.60;99.90;;;;;;5038931;28;20495;-69
2024/01/25 01:42:10;;;;;;;3.40;3.40;;;7.60;99.90;;;;;;5045662;28;20474;-70
2024/01/25 01:44:37;;;;;;;3.50;3.50;;;7.60;99.90;;;;;;5043658;28;21082;-70
2024/01/25 01:47:05;;;;;;;3.83;3.83;;;7.50;99.90;;;;;;5044607;28;20533;-70
2024/01/25 01:49:32;;;;;;;3.83;3.83;;;7.40;99.90;;;;;;5044952;28;20466;-70
2024/01/25 01:52:00;;;;;;;3.60;3.60;;;7.30;99.90;;;;;;5043635;28;20479;-71
2024/01/25 01:54:27;;;;;;;3.50;3.50;;;7.30;99.90;;;;;;5040781;28;20469;-70
2024/01/25 01:56:54;;;;;;;3.40;3.40;;;7.30;99.90;;;;;;5037572;28;20638;-71
2024/01/25 01:59:21;;;;;;;3.60;3.60;;;7.30;99.90;;;;;;5041872;28;20865;-71
2024/01/25 02:01:49;;;;;;;3.70;3.70;;;7.30;99.90;;;;;;5039005;28;20449;-72
2024/01/25 02:04:17;;;;;;;3.80;3.80;;;7.20;99.90;;;;;;5046864;28;20575;-70
2024/01/25 02:06:45;;;;;;;3.30;3.30;;;7.20;99.90;;;;;;5047858;28;20460;-70
2024/01/25 02:09:12;;;;;;;3.10;3.10;;;7.20;99.90;;;;;;5046534;28;20468;-70
2024/01/25 02:11:39;;;;;;;3.30;3.30;;;7.10;99.90;;;;;;5042509;28;20821;-69
2024/01/25 02:16:47;;;;;;;3.67;3.67;;;7.10;99.90;;;;;;5039267;28;20456;-71
2024/01/25 02:19:15;;;;;;;3.60;3.60;;;7.10;99.90;;;;;;5044902;28;20519;-69
2024/01/25 02:21:44;;;;;;;3.60;3.60;;;7.00;99.90;;;;;;5039837;28;20456;-70
2024/01/25 02:24:12;;;;;;;3.17;3.17;;;7.00;99.90;;;;;;5041535;28;20460;-70
2024/01/25 02:26:39;;;;;;;3.67;3.67;;;7.00;99.90;;;;;;5043326;28;20486;-69
2024/01/25 02:29:08;;;;;;;3.60;3.60;;;7.00;99.90;;;;;;5042907;28;20910;-69
2024/01/25 02:31:35;;;;;;;3.83;3.83;;;7.00;99.90;;;;;;5040892;28;20465;-70
2024/01/25 02:34:02;;;;;;;3.50;3.50;;;6.90;99.90;;;;;;5042141;28;20464;-70
2024/01/25 02:36:29;;;;;;;4.20;4.20;;;6.80;99.90;;;;;;5042156;28;20469;-69
2024/01/25 02:38:56;;;;;;;4.20;4.20;;;6.80;99.90;;;;;;5041571;28;20564;-70
2024/01/25 02:41:24;;;;;;;4.27;4.27;;;6.70;99.90;;;;;;5041171;28;20486;-71
2024/01/25 02:43:51;;;;;;;4.40;4.40;;;6.70;99.90;;;;;;5041783;28;20856;-70
2024/01/25 02:46:18;;;;;;;3.67;3.67;;;6.70;99.90;;;;;;5035610;28;20488;-70
2024/01/25 02:48:44;;;;;;;4.50;4.50;;;6.80;99.90;;;;;;5040506;28;20546;-70
2024/01/25 02:51:11;;;;;;;4.50;4.50;;;6.70;99.90;;;;;;5041794;28;20499;-69
2024/01/25 02:53:39;;;;;;;4.17;4.17;;;6.70;99.90;;;;;;5041706;28;20452;-68
2024/01/25 02:56:07;;;;;;;4.60;4.60;;;6.60;99.90;;;;;;5042258;28;20457;-70
2024/01/25 02:58:35;;;;;;;4.63;4.63;;;6.50;99.90;;;;;;5043030;28;20457;-69
2024/01/25 03:01:02;;;;;;;5.30;5.20;;;6.50;99.90;;;;;;5032331;28;20504;-70
2024/01/25 03:03:28;;;;;;;6.03;5.93;;;6.50;99.90;;;;;;5038419;28;20459;-69
2024/01/25 03:05:55;;;;;;;5.40;5.30;;;6.50;99.90;;;;;;5045655;28;20463;-69
2024/01/25 03:08:22;;;;;;;5.47;5.37;;;6.60;99.90;;;;;;5037572;28;22503;-69
2024/01/25 03:10:50;;;;;;;5.23;5.13;;;6.60;99.90;;;;;;5035181;28;20448;-70
2024/01/25 03:13:17;;;;;;;5.83;5.73;;;6.60;99.90;;;;;;5029826;28;20876;-70
2024/01/25 03:15:45;;;;;;;5.70;5.60;;;6.50;99.90;;;;;;5036525;28;20472;-69
2024/01/25 03:18:12;;;;;;;6.00;5.90;;;6.50;99.90;;;;;;5042776;28;21001;-69
2024/01/25 03:20:39;;;;;;;5.80;5.70;;;6.40;99.90;;;;;;5036950;28;20483;-69
2024/01/25 03:23:06;;;;;;;5.87;5.77;;;6.40;99.90;;;;;;5040401;28;20457;-69
2024/01/25 03:25:33;;;;;;;6.40;6.30;;;6.50;99.90;;;;;;5040603;28;20463;-70
2024/01/25 03:28:00;;;;;;;6.30;6.20;;;6.50;99.90;;;;;;5040932;28;20456;-70
2024/01/25 03:30:27;;;;;;;5.60;5.50;;;6.50;99.90;;;;;;5042520;28;20464;-69
2024/01/25 03:32:55;;;;;;;5.90;5.80;;;6.40;99.90;;;;;;5041851;28;20459;-70
2024/01/25 03:35:22;;;;;;;6.30;6.20;;;6.40;99.90;;;;;;5043268;28;20457;-70
2024/01/25 03:37:49;;;;;;;6.10;6.00;;;6.40;99.90;;;;;;5038060;28;20479;-69
2024/01/25 03:40:15;;;;;;;5.90;5.80;;;6.40;99.90;;;;;;5040549;28;21094;-70
2024/01/25 03:42:42;;;;;;;5.90;5.80;;;6.40;99.90;;;;;;5044792;28;20850;-69
2024/01/25 03:45:09;;;;;;;5.90;5.80;;;6.50;99.90;;;;;;5041398;28;20449;-70
2024/01/25 03:47:36;;;;;;;5.63;5.53;;;6.50;99.90;;;;;;5035842;28;20493;-70
2024/01/25 03:50:06;;;;;;;5.80;5.70;;;6.40;99.90;;;;;;5038910;28;20802;-70
2024/01/25 03:52:33;;;;;;;6.10;6.00;;;6.40;99.90;;;;;;5039788;28;20914;-69
2024/01/25 03:55:00;;;;;;;6.30;6.20;;;6.30;99.90;;;;;;5041052;28;20946;-70
2024/01/25 03:57:27;;;;;;;6.10;6.00;;;6.30;99.90;;;;;;5043489;28;20475;-70
2024/01/25 03:59:54;;;;;;;5.67;5.57;;;6.30;99.90;;;;;;5036668;28;20542;-70
2024/01/25 04:02:20;;;;;;;5.93;5.83;;;6.20;99.90;;;;;;5043208;28;20467;-69
2024/01/25 04:04:48;;;;;;;6.00;5.90;;;6.10;99.90;;;;;;5040259;28;20466;-70
2024/01/25 04:07:16;;;;;;;5.90;5.80;;;6.20;99.90;;;;;;5035341;28;20465;-70
2024/01/25 04:09:58;;;;;;;6.10;6.00;;;6.20;99.90;;;;;;5038583;28;21009;-69
2024/01/25 04:12:25;;;;;;;6.27;6.17;;;6.10;99.90;;;;;;5036965;28;20464;-70
2024/01/25 04:14:52;;;;;;;6.83;6.73;;;6.10;99.90;;;;;;5039293;28;20465;-69
2024/01/25 04:17:19;;;;;;;7.10;7.00;;;6.00;99.90;;;;;;5045174;28;20453;-69
2024/01/25 04:19:46;;;;;;;6.97;6.87;;;6.00;99.90;;;;;;5042921;28;20524;-70
2024/01/25 04:22:13;;;;;;;7.47;7.37;;;6.00;99.90;;;;;;5033781;28;20469;-70
2024/01/25 04:24:43;;;;;;;7.80;7.70;;;6.00;99.90;;;;;;5036630;28;20831;-70
2024/01/25 04:27:10;;;;;;;7.73;7.63;;;5.90;99.90;;;;;;5031971;28;20459;-70
2024/01/25 04:29:39;;;;;;;7.73;7.63;;;5.90;99.90;;;;;;5040356;28;20476;-70
2024/01/25 04:32:07;;;;;;;8.80;8.70;;;5.80;99.90;;;;;;5041572;28;20581;-70
2024/01/25 04:34:34;;;;;;;9.00;8.90;;;5.80;99.90;;;;;;5038070;28;20867;-70
2024/01/25 04:37:02;;;;;;;8.93;8.83;;;5.80;99.90;;;;;;5035003;28;20464;-70
2024/01/25 04:39:28;;;;;;;9.50;9.30;;;5.70;99.90;;;;;;5039584;28;21042;-70
2024/01/25 04:41:57;;;;;;;9.53;9.33;;;5.70;99.90;;;;;;5034618;28;20464;-70
2024/01/25 04:44:24;;;;;;;9.80;9.60;;;5.70;99.90;;;;;;5034830;28;20462;-70
2024/01/25 04:46:52;;;;;;;10.03;9.83;;;5.60;99.90;;;;;;5033157;28;20539;-70
2024/01/25 04:49:18;;;;;;;10.53;10.33;;;5.50;99.90;;;;;;5036006;28;20471;-70
2024/01/25 04:51:45;;;;;;;10.57;10.37;;;5.50;99.90;;;;;;5036419;28;20481;-71
2024/01/25 04:54:15;;;;;;;11.07;10.87;;;5.40;99.90;;;;;;5040392;28;20488;-70
2024/01/25 04:56:42;;;;;;;11.23;11.03;;;5.40;99.90;;;;;;5038724;28;21023;-70
2024/01/25 04:59:10;;;;;;;11.97;11.67;;;5.40;99.90;;;;;;5039429;28;20465;-69
2024/01/25 05:01:38;;;;;;;12.60;12.30;;;5.30;99.90;;;;;;5042563;28;21032;-70
2024/01/25 05:04:05;;;;;;;13.03;12.70;;;5.20;99.90;;;;;;5043998;28;20955;-70
2024/01/25 05:06:32;;;;;;;13.73;13.33;;;5.10;99.90;;;;;;5047233;28;20862;-70
2024/01/25 05:08:59;;;;;;;13.47;13.07;;;5.00;99.90;;;;;;5044851;28;20468;-70
2024/01/25 05:11:26;;;;;;;13.57;13.17;;;5.00;99.90;;;;;;5047101;28;20871;-70
2024/01/25 05:13:53;;;;;;;13.90;13.50;;;4.90;99.90;;;;;;5035255;28;20463;-70
2024/01/25 05:16:21;;;;;;;14.60;14.20;;;4.90;99.90;;;;;;5044519;28;20466;-71
2024/01/25 05:18:49;;;;;;;14.60;14.20;;;4.80;99.90;;;;;;5041281;28;20460;-70
2024/01/25 05:21:16;;;;;;;15.53;15.03;;;4.70;99.90;;;;;;5043128;28;20499;-70
2024/01/25 05:23:44;;;;;;;15.50;15.00;;;4.60;99.90;;;;;;5041319;28;20517;-70
2024/01/25 05:26:11;;;;;;;14.90;14.43;;;4.70;99.90;;;;;;5043806;28;20558;-70
2024/01/25 05:28:38;;;;;;;14.27;13.87;;;4.70;99.90;;;;;;5042995;28;20456;-70
2024/01/25 05:31:05;;;;;;;15.10;14.60;;;4.70;99.90;;;;;;5042867;28;20484;-70
2024/01/25 05:33:34;;;;;;;15.70;15.20;;;4.60;99.90;;;;;;5042759;28;20499;-70
2024/01/25 05:36:00;;;;;;;15.20;14.70;;;4.50;99.90;;;;;;5040936;28;20901;-70
2024/01/25 05:38:27;;;;;;;15.33;14.83;;;4.40;99.90;;;;;;5046335;28;20452;-70
2024/01/25 05:40:54;;;;;;;16.60;16.10;;;4.20;99.90;;;;;;5038608;28;20731;-69
2024/01/25 05:43:20;;;;;;;15.93;15.43;;;4.10;99.90;;;;;;5040013;28;20459;-69
2024/01/25 05:45:47;;;;;;;17.00;16.40;;;4.00;99.90;;;;;;5037305;28;20465;-70
2024/01/25 05:48:15;;;;;;;17.37;16.77;;;4.00;99.90;;;;;;5042111;28;20558;-69
2024/01/25 05:50:43;;;;;;;16.33;15.77;;;4.10;99.90;;;;;;5041494;28;20973;-70
2024/01/25 05:53:09;;;;;;;16.10;15.60;;;4.20;99.90;;;;;;5048042;28;20491;-70
2024/01/25 05:55:36;;;;;;;15.83;15.33;;;4.30;99.90;;;;;;5044584;28;20465;-71
2024/01/25 05:58:03;;;;;;;15.63;15.13;;;4.40;99.90;;;;;;5040727;28;20456;-70
2024/01/25 06:00:30;;;;;;;15.60;15.10;;;4.40;99.90;;;;;;5042768;28;20483;-70
2024/01/25 06:02:56;;;;;;;16.30;15.80;;;4.40;99.90;;;;;;5038038;28;20468;-69
2024/01/25 06:05:22;;;;;;;15.33;14.83;;;4.40;99.90;;;;;;5045140;28;21025;-70
2024/01/25 06:07:50;;;;;;;16.13;15.63;;;4.30;99.90;;;;;;5043084;28;20468;-70
2024/01/25 06:10:17;;;;;;;16.33;15.83;;;4.10;99.90;;;;;;5038063;28;20459;-70
2024/01/25 06:12:44;;;;;;;17.10;16.50;;;4.00;99.90;;;;;;5044930;28;20471;-69
2024/01/25 06:15:11;;;;;;;16.97;16.37;;;3.90;99.90;;;;;;5037720;28;20812;-70
2024/01/25 06:17:38;;;;;;;16.30;15.80;;;3.90;99.90;;;;;;5037127;28;20490;-70
2024/01/25 06:20:05;;;;;;;16.67;16.07;;;3.90;99.90;;;;;;5038111;28;20481;-70
2024/01/25 06:22:33;;;;;;;16.60;16.10;;;3.90;99.90;;;;;;5038401;28;20805;-70
2024/01/25 06:25:03;;;;;;;16.93;16.33;;;3.90;99.90;;;;;;5032212;28;20957;-70
2024/01/25 06:27:30;;;;;;;16.60;16.10;;;4.00;99.90;;;;;;5041502;28;20464;-71
2024/01/25 06:29:57;;;;;;;17.00;16.43;;;4.00;99.90;;;;;;5045650;28;20915;-70
2024/01/25 06:32:23;;;;;;;17.30;16.70;;;4.00;99.90;;;;;;5042145;28;20465;-70
2024/01/25 06:34:50;;;;;;;16.63;16.13;;;4.10;99.90;;;;;;5040379;28;20461;-70
2024/01/25 06:37:18;;;;;;;16.53;16.03;;;4.10;99.90;;;;;;5034323;28;20457;-70
2024/01/25 06:39:45;;;;;;;18.07;17.47;;;4.10;99.90;;;;;;5047661;28;20452;-70
2024/01/25 06:42:13;;;;;;;17.87;17.27;;;4.10;99.90;;;;;;5037022;28;20461;-69
2024/01/25 06:44:40;;;;;;;17.23;16.63;;;4.10;99.90;;;;;;5035322;28;20457;-70
2024/01/25 06:47:07;;;;;;;18.13;17.53;;;4.20;99.90;;;;;;5035773;28;20476;-70
2024/01/25 06:49:34;;;;;;;17.27;16.70;;;4.20;99.90;;;;;;5037988;28;20465;-70
2024/01/25 06:52:01;;;;;;;17.67;17.07;;;4.20;99.90;;;;;;5043040;28;20577;-70
2024/01/25 06:54:28;;;;;;;18.50;17.90;;;4.20;99.90;;;;;;5035323;28;20469;-69
2024/01/25 06:56:56;;;;;;;16.63;16.13;;;4.30;99.90;;;;;;5040158;28;20459;-71
2024/01/25 06:59:25;;;;;;;16.83;16.33;;;4.30;99.90;;;;;;5039085;28;20457;-70
2024/01/25 07:01:52;;;;;;;18.30;17.70;;;4.30;99.90;;;;;;5036009;28;20500;-70
2024/01/25 07:04:18;;;;;;;17.20;16.70;;;4.40;99.90;;;;;;5039767;28;20461;-70
2024/01/25 07:06:46;;;;;;;17.57;16.97;;;4.50;99.90;;;;;;5037079;28;20486;-70
2024/01/25 07:09:12;;;;;;;19.30;18.67;;;4.40;99.90;;;;;;5043518;28;20491;-70
2024/01/25 07:11:40;;;;;;;18.70;18.10;;;4.40;99.90;;;;;;5037952;28;20465;-70
2024/01/25 07:14:07;;;;;;;17.90;17.30;;;4.30;99.90;;;;;;5040283;28;20467;-70
2024/01/25 07:16:35;;;;;;;19.00;18.40;;;4.40;99.90;;;;;;5042504;28;20897;-70
2024/01/25 07:19:03;;;;;;;17.87;17.27;;;4.40;99.90;;;;;;5043211;28;20954;-70
2024/01/25 07:21:32;;;;;;;17.57;16.97;;;4.40;99.90;;;;;;5046425;28;20575;-70
2024/01/25 07:24:00;;;;;;;17.73;17.13;;;4.50;99.90;;;;;;5038082;28;20457;-70
2024/01/25 07:26:27;;;;;;;17.33;16.83;;;4.50;99.90;;;;;;5035776;28;20741;-70
2024/01/25 07:28:57;;;;;;;17.00;16.50;;;4.50;99.90;;;;;;5038768;28;20475;-70
2024/01/25 07:31:25;;;;;;;18.27;17.67;;;4.60;99.90;;;;;;5034501;28;20498;-70
2024/01/25 07:33:53;;;;;;;17.63;17.13;;;4.60;99.90;;;;;;5041348;28;20476;-69
2024/01/25 07:36:20;;;;;;;17.90;17.30;;;4.60;99.90;;;;;;5039483;28;20469;-70
2024/01/25 07:38:48;;;;;;;17.97;17.37;;;4.60;99.90;;;;;;5036060;28;20471;-70
2024/01/25 07:41:15;;;;;;;18.57;17.97;;;4.60;99.90;;;;;;5038849;28;20572;-70
2024/01/25 07:43:43;;;;;;;18.97;18.37;;;4.60;99.90;;;;;;5044204;28;20467;-70
2024/01/25 07:46:10;;;;;;;18.53;17.93;;;4.60;99.90;;;;;;5041731;28;20515;-70
2024/01/25 07:48:37;;;;;;;19.00;18.40;;;4.60;99.90;;;;;;5046560;28;20461;-69
2024/01/25 07:51:12;;;;;;;18.70;18.10;;;4.60;99.90;;;;;;5033301;28;20460;-70
2024/01/25 07:53:39;;;;;;;19.40;18.80;;;4.60;99.90;;;;;;5038025;28;20455;-70
2024/01/25 07:56:08;;;;;;;18.57;17.97;;;4.70;99.90;;;;;;5042301;28;20459;-70
2024/01/25 07:58:36;;;;;;;17.53;16.93;;;4.70;99.90;;;;;;5040723;28;20499;-70
2024/01/25 08:01:06;;;;;;;18.10;17.50;;;4.80;99.90;;;;;;5036940;28;20487;-70
2024/01/25 08:03:33;;;;;;;17.63;17.03;;;4.80;99.90;;;;;;5033911;28;20520;-70
2024/01/25 08:06:00;;;;;;;17.70;17.10;;;4.90;99.90;;;;;;5046643;28;20831;-71
2024/01/25 08:08:28;;;;;;;18.10;17.50;;;4.90;99.90;;;;;;5045958;28;20456;-69
2024/01/25 08:10:55;;;;;;;17.90;17.30;;;5.00;99.90;;;;;;5050224;28;20483;-69
2024/01/25 08:13:22;;;;;;;17.77;17.17;;;5.00;99.90;;;;;;5045856;28;20472;-69
2024/01/25 08:15:50;;;;;;;16.43;15.93;;;5.10;99.90;;;;;;5044756;28;20541;-70
2024/01/25 08:18:18;;;;;;;17.33;16.83;;;5.10;99.90;;;;;;5046305;28;20862;-71
2024/01/25 08:20:46;;;;;;;17.67;17.07;;;5.20;99.90;;;;;;5049084;28;20487;-70
2024/01/25 08:23:14;;;;;;;17.67;17.07;;;5.30;99.90;;;;;;5043624;28;20865;-70
2024/01/25 08:25:43;;;;;;;17.10;16.60;;;5.40;99.90;;;;;;5046736;28;20459;-71
2024/01/25 08:28:10;;;;;;;18.40;17.80;;;5.50;99.90;;;;;;5047958;28;20832;-70
2024/01/25 08:30:36;;;;;;;18.63;18.03;;;5.60;99.90;;;;;;5041234;28;20467;-70
2024/01/25 08:33:04;;;;;;;18.43;17.83;;;5.60;99.90;;;;;;5049963;28;20511;-70
2024/01/25 08:35:31;;;;;;;18.40;17.80;;;5.70;99.90;;;;;;5049124;28;20909;-70
2024/01/25 08:37:57;;;;;;;17.60;17.00;;;5.90;99.90;;;;;;5043462;28;20880;-71
2024/01/25 08:40:24;;;;;;;18.80;18.20;;;5.80;99.90;;;;;;5044671;28;20466;-70
2024/01/25 08:42:52;;;;;;;18.20;17.60;;;5.90;99.90;;;;;;5048190;28;20459;-71
2024/01/25 08:45:19;;;;;;;18.07;17.47;;;5.90;99.90;;;;;;5046354;28;20938;-69
2024/01/25 08:47:46;;;;;;;19.27;18.57;;;6.00;99.90;;;;;;5048908;28;20858;-70
2024/01/25 08:50:13;;;;;;;19.17;18.47;;;6.20;99.90;;;;;;5041176;28;20560;-71
2024/01/25 08:52:40;;;;;;;18.77;18.13;;;6.20;99.90;;;;;;5050162;28;20700;-71
2024/01/25 08:55:09;;;;;;;19.07;18.37;;;6.20;99.90;;;;;;5048371;28;20807;-71
2024/01/25 08:57:37;;;;;;;19.50;18.80;;;6.30;99.90;;;;;;5046593;28;20872;-70
2024/01/25 09:00:10;;;;;;;19.13;18.43;;;6.40;99.90;;;;;;5046715;28;20656;-70
2024/01/25 09:02:36;;;;;;;19.17;18.47;;;6.30;99.90;;;;;;5048978;28;20488;-71
2024/01/25 09:05:04;;;;;;;19.07;18.37;;;6.30;99.90;;;;;;5049181;28;20803;-69
2024/01/25 09:07:30;;;;;;;18.97;18.27;;;6.40;99.90;;;;;;5043278;28;20475;-70
2024/01/25 09:09:57;;;;;;;19.50;18.80;;;6.40;99.90;;;;;;5043705;28;20472;-70
2024/01/25 09:12:24;;;;;;;19.20;18.50;;;6.50;99.90;;;;;;5048045;28;20459;-70
2024/01/25 09:14:51;;;;;;;19.60;18.90;;;6.50;99.90;;;;;;5045363;28;20465;-70
2024/01/25 09:17:21;;;;;;;19.60;18.90;;;6.60;99.90;;;;;;5048822;28;20459;-70
2024/01/25 09:19:49;;;;;;;19.70;19.00;;;6.70;99.90;;;;;;5039973;28;20456;-70
2024/01/25 09:22:17;;;;;;;19.60;18.90;;;6.70;99.90;;;;;;5047537;28;21226;-71
2024/01/25 09:24:44;;;;;;;18.77;18.07;;;6.80;99.90;;;;;;5044061;28;20977;-69
2024/01/25 09:27:10;;;;;;;19.30;18.60;;;6.80;99.90;;;;;;5047777;28;20497;-70
2024/01/25 09:29:39;;;;;;;18.90;18.20;;;6.70;99.90;;;;;;5046619;28;20828;-70
2024/01/25 09:32:06;;;;;;;19.10;18.40;;;6.70;99.90;;;;;;5045701;28;20550;-70
2024/01/25 09:34:35;;;;;;;18.30;17.60;;;6.90;99.90;;;;;;5045664;28;20492;-71
2024/01/25 09:37:02;;;;;;;17.67;17.07;;;7.00;99.90;;;;;;5042609;28;20567;-70
2024/01/25 09:39:29;;;;;;;17.30;16.70;;;7.00;99.90;;;;;;5045313;28;20464;-70
2024/01/25 09:41:56;;;;;;;16.87;16.27;;;7.10;99.90;;;;;;5043420;28;20997;-70
2024/01/25 09:44:23;;;;;;;15.93;15.43;;;7.00;99.90;;;;;;5041423;28;20929;-71
2024/01/25 09:46:52;;;;;;;16.07;15.57;;;7.10;99.90;;;;;;5051184;28;20958;-70
2024/01/25 09:49:35;;;;;;;16.00;15.50;;;7.20;99.90;;;;;;5051930;28;20472;-71
2024/01/25 09:52:04;;;;;;;15.93;15.43;;;7.10;99.90;;;;;;5047922;28;20841;-71
2024/01/25 09:54:33;;;;;;;16.50;15.93;;;7.10;99.90;;;;;;5051479;28;21045;-71
2024/01/25 09:57:01;;;;;;;16.77;16.17;;;7.30;99.90;;;;;;5040644;28;20467;-71
2024/01/25 09:59:28;;;;;;;17.17;16.57;;;7.30;99.90;;;;;;5052034;28;20578;-70
2024/01/25 10:01:55;;;;;;;16.50;15.90;;;7.50;99.90;;;;;;5047568;28;20503;-70
2024/01/25 10:04:24;;;;;;;16.10;15.60;;;7.60;99.90;;;;;;5050293;28;20464;-71
2024/01/25 10:06:51;;;;;;;15.70;15.20;;;7.70;99.90;;;;;;5034202;28;20471;-72
2024/01/25 10:09:19;;;;;;;14.97;14.47;;;7.70;99.90;;;;;;5047908;28;20467;-70
2024/01/25 10:11:46;;;;;;;14.40;14.00;;;7.80;99.90;;;;;;5049810;28;20990;-72
2024/01/25 10:14:13;;;;;;;14.57;14.17;;;7.90;99.90;;;;;;5050037;28;20981;-70
2024/01/25 10:16:40;;;;;;;13.03;12.73;;;8.00;99.90;;;;;;5052257;28;20559;-70
2024/01/25 10:19:08;;;;;;;11.80;11.50;;;7.90;99.90;;;;;;5047562;28;20464;-71
2024/01/25 10:21:36;;;;;;;11.70;11.40;;;7.90;99.90;;;;;;5049956;28;20587;-71
2024/01/25 10:24:03;;;;;;;10.10;9.90;;;8.00;99.90;;;;;;5049784;28;20487;-70
2024/01/25 10:26:32;;;;;;;9.53;9.33;;;7.90;99.90;;;;;;5046049;28;20468;-71
2024/01/25 10:28:59;;;;;;;9.57;9.37;;;8.00;99.90;;;;;;5052647;28;20448;-72
2024/01/25 10:31:26;;;;;;;8.53;8.43;;;8.10;99.90;;;;;;5046771;28;20468;-71
2024/01/25 10:33:54;;;;;;;8.83;8.73;;;8.20;99.90;;;;;;5050041;28;20464;-71
2024/01/25 10:36:22;;;;;;;7.87;7.77;;;8.30;99.90;;;;;;5046105;28;20766;-72
2024/01/25 10:38:49;;;;;;;9.30;9.10;;;8.20;99.90;;;;;;5050254;28;20849;-72
2024/01/25 10:41:17;;;;;;;8.27;8.17;;;8.30;99.90;;;;;;5051101;28;20466;-72
2024/01/25 10:43:45;;;;;;;7.50;7.40;;;8.30;99.90;;;;;;5039987;28;20467;-71
2024/01/25 10:46:12;;;;;;;6.73;6.63;;;8.30;99.90;;;;;;5051937;28;20489;-71
2024/01/25 10:48:41;;;;;;;6.97;6.87;;;8.40;99.90;;;;;;5049736;28;20476;-71
2024/01/25 10:51:09;;;;;;;7.20;7.10;;;8.40;99.90;;;;;;5049363;28;20486;-71
2024/01/25 10:53:38;;;;;;;7.80;7.70;;;8.60;99.90;;;;;;5049982;28;20472;-71
2024/01/25 10:56:06;;;;;;;7.10;7.00;;;8.50;99.90;;;;;;5047840;28;20473;-72
2024/01/25 10:58:35;;;;;;;7.37;7.27;;;8.70;99.90;;;;;;5045909;28;20640;-72
2024/01/25 11:01:04;;;;;;;7.63;7.53;;;8.70;99.90;;;;;;5046081;28;20913;-72
2024/01/25 11:03:31;;;;;;;7.40;7.30;;;8.70;99.90;;;;;;5049430;28;20621;-72
2024/01/25 11:06:08;;;;;;;7.90;7.80;;;8.80;99.90;;;;;;5050620;28;20457;-71
2024/01/25 11:08:37;;;;;;;8.10;8.00;;;8.90;99.90;;;;;;5048089;28;20544;-71
2024/01/25 11:11:07;;;;;;;8.40;8.30;;;9.00;99.90;;;;;;5048080;28;20556;-71
2024/01/25 11:13:34;;;;;;;8.60;8.50;;;9.10;99.90;;;;;;5045042;28;20915;-71
2024/01/25 11:16:16;;;;;;;8.70;8.60;;;9.40;99.90;;;;;;5050261;28;20467;-71
2024/01/25 11:18:51;;;;;;;10.07;9.87;;;9.50;99.90;;;;;;5049677;28;20487;-71
2024/01/25 11:21:28;;;;;;;10.20;10.00;;;9.60;99.90;;;;;;5048202;28;20467;-71
2024/01/25 11:24:02;;;;;;;10.20;10.00;;;9.90;99.90;;;;;;5047383;28;20964;-72
2024/01/25 11:26:29;;;;;;;10.67;10.43;;;10.30;99.90;;;;;;5050492;28;20521;-72
2024/01/25 11:28:59;;;;;;;10.33;10.13;;;10.20;99.90;;;;;;5048669;28;20469;-73
2024/01/25 11:31:28;;;;;;;10.70;10.40;;;10.50;99.90;;;;;;5050390;28;20469;-72
2024/01/25 11:33:58;;;;;;;11.40;11.10;;;10.70;99.90;;;;;;5046329;28;20469;-72
2024/01/25 11:36:25;;;;;;;11.70;11.40;;;10.70;99.90;;;;;;5049552;28;20457;-71
2024/01/25 11:38:52;;;;;;;11.00;10.70;;;10.80;99.90;;;;;;5049107;28;21005;-72
2024/01/25 11:41:20;;;;;;;11.57;11.27;;;10.90;99.90;;;;;;5050421;28;20470;-71
2024/01/25 11:43:48;;;;;;;12.23;11.83;;;10.60;99.90;;;;;;5042744;28;20488;-73
2024/01/25 11:46:16;;;;;;;12.60;12.20;;;10.90;99.90;;;;;;5045712;28;20486;-72
2024/01/25 11:48:44;;;;;;;12.50;12.10;;;10.90;99.90;;;;;;5048862;28;20464;-72
2024/01/25 11:51:11;;;;;;;12.43;12.03;;;11.20;99.90;;;;;;5043892;28;20462;-72
2024/01/25 11:53:38;;;;;;;13.13;12.73;;;11.40;99.90;;;;;;5041493;28;20550;-72
2024/01/25 11:56:07;;;;;;;12.87;12.47;;;11.60;99.90;;;;;;5045836;28;20464;-72
2024/01/25 11:58:36;;;;;;;13.17;12.77;;;11.80;99.90;;;;;;5037104;28;20457;-72
2024/01/25 12:01:05;;;;;;;13.60;13.10;;;12.10;99.90;;;;;;5035998;28;20481;-73
2024/01/25 12:03:32;;;;;;;13.40;12.90;;;12.10;99.90;;;;;;5046179;28;20507;-73
2024/01/25 12:06:00;;;;;;;13.50;13.03;;;12.10;99.90;;;;;;5048080;28;20468;-71
2024/01/25 12:08:28;;;;;;;13.67;13.17;;;12.00;99.90;;;;;;5047293;28;20856;-73
2024/01/25 12:11:06;;;;;;;13.83;13.33;;;12.00;99.90;;;;;;5049831;28;20750;-72
2024/01/25 12:13:35;;;;;;;14.37;13.87;;;12.00;99.90;;;;;;5046158;28;20477;-71
2024/01/25 12:16:03;;;;;;;13.90;13.40;;;12.00;99.90;;;;;;5039368;28;20462;-72
2024/01/25 12:18:31;;;;;;;14.50;14.00;;;12.10;99.90;;;;;;5044014;28;20564;-72
2024/01/25 12:21:01;;;;;;;14.63;14.13;;;11.50;99.90;;;;;;5044498;28;21942;-71
2024/01/25 12:23:34;;;;;;;13.97;13.47;;;11.70;99.90;;;;;;5049867;28;20504;-72
2024/01/25 12:26:02;;;;;;;14.30;13.80;;;11.60;99.90;;;;;;5046023;28;20481;-71
2024/01/25 12:28:30;;;;;;;14.10;13.60;;;11.50;99.90;;;;;;5044559;28;20560;-71
2024/01/25 12:30:58;;;;;;;14.40;13.90;;;11.70;99.90;;;;;;5042106;28;20955;-71
2024/01/25 12:33:25;;;;;;;14.97;14.37;;;11.80;99.90;;;;;;5038333;28;20966;-71
2024/01/25 12:35:51;;;;;;;14.77;14.23;;;12.00;99.90;;;;;;5042243;28;20515;-71
2024/01/25 12:38:19;;;;;;;14.30;13.80;;;11.70;99.90;;;;;;5047314;28;20462;-72
2024/01/25 12:40:49;;;;;;;14.30;13.80;;;12.00;99.90;;;;;;5048139;28;20469;-71
2024/01/25 12:43:16;;;;;;;14.50;14.00;;;12.00;99.90;;;;;;5038463;28;20490;-72
2024/01/25 12:45:44;;;;;;;14.90;14.40;;;12.10;99.90;;;;;;5047770;28;20474;-73
2024/01/25 12:48:11;;;;;;;14.40;13.90;;;12.10;99.90;;;;;;5042777;28;20476;-72
2024/01/25 12:50:38;;;;;;;14.47;13.97;;;12.40;99.90;;;;;;5047159;28;20556;-72
2024/01/25 12:53:06;;;;;;;14.70;14.20;;;12.70;99.90;;;;;;5049875;28;20853;-71
2024/01/25 12:55:37;;;;;;;15.10;14.60;;;12.40;99.90;;;;;;5043084;28;20547;-71